sensor_id;sensor_type;location;lat;lon;timestamp;pressure;altitude;pressure_sealevel;temperature;humidity
72585;BME280;60618;40.084;32.908;2023-06-14T00:01:49;89049.38;;;17.28;79.53
72585;BME280;60618;40.084;32.908;2023-06-14T00:04:16;89053.09;;;17.25;79.50
72585;BME280;60618;40.084;32.908;2023-06-14T00:06:44;89051.97;;;17.21;79.54
72585;BME280;60618;40.084;32.908;2023-06-14T00:09:12;89051.63;;;17.24;79.67
72585;BME280;60618;40.084;32.908;2023-06-14T00:11:40;89045.72;;;17.05;79.31
72585;BME280;60618;40.084;32.908;2023-06-14T00:14:07;89035.75;;;16.79;80.06
72585;BME280;60618;40.084;32.908;2023-06-14T00:16:34;89042.28;;;16.70;80.83
72585;BME280;60618;40.084;32.908;2023-06-14T00:19:01;89046.81;;;16.62;81.00
72585;BME280;60618;40.084;32.908;2023-06-14T00:21:29;89043.97;;;16.47;81.85
72585;BME280;60618;40.084;32.908;2023-06-14T00:23:57;89049.03;;;16.24;83.51
72585;BME280;60618;40.084;32.908;2023-06-14T00:26:24;89051.41;;;16.01;85.42
72585;BME280;60618;40.084;32.908;2023-06-14T00:28:53;89059.25;;;15.99;86.25
72585;BME280;60618;40.084;32.908;2023-06-14T00:31:20;89056.63;;;15.80;87.02
72585;BME280;60618;40.084;32.908;2023-06-14T00:33:47;89055.59;;;15.70;87.51
72585;BME280;60618;40.084;32.908;2023-06-14T00:36:14;89059.47;;;15.56;88.26
72585;BME280;60618;40.084;32.908;2023-06-14T00:38:41;89058.09;;;15.49;89.26
72585;BME280;60618;40.084;32.908;2023-06-14T00:41:07;89051.88;;;15.41;90.57
72585;BME280;60618;40.084;32.908;2023-06-14T00:43:34;89059.47;;;15.56;90.55
72585;BME280;60618;40.084;32.908;2023-06-14T00:46:01;89056.84;;;15.69;89.76
72585;BME280;60618;40.084;32.908;2023-06-14T00:48:28;89055.63;;;15.83;88.77
72585;BME280;60618;40.084;32.908;2023-06-14T00:50:56;89053.66;;;15.97;87.94
72585;BME280;60618;40.084;32.908;2023-06-14T00:53:23;89063.81;;;16.04;87.62
72585;BME280;60618;40.084;32.908;2023-06-14T00:55:50;89060.50;;;16.11;87.25
72585;BME280;60618;40.084;32.908;2023-06-14T00:58:17;89056.47;;;16.18;86.66
72585;BME280;60618;40.084;32.908;2023-06-14T01:00:44;89055.22;;;16.32;85.95
72585;BME280;60618;40.084;32.908;2023-06-14T01:03:11;89055.94;;;16.46;85.75
72585;BME280;60618;40.084;32.908;2023-06-14T01:05:39;89054.09;;;16.54;85.11
72585;BME280;60618;40.084;32.908;2023-06-14T01:08:18;89061.72;;;16.50;84.89
72585;BME280;60618;40.084;32.908;2023-06-14T01:10:56;89054.09;;;16.54;84.79
72585;BME280;60618;40.084;32.908;2023-06-14T01:13:38;89051.16;;;16.65;84.28
72585;BME280;60618;40.084;32.908;2023-06-14T01:16:07;89053.25;;;16.72;83.63
72585;BME280;60618;40.084;32.908;2023-06-14T01:18:35;89050.34;;;16.70;83.69
72585;BME280;60618;40.084;32.908;2023-06-14T01:21:02;89052.41;;;16.64;82.74
72585;BME280;60618;40.084;32.908;2023-06-14T01:23:30;89053.25;;;16.33;83.92
72585;BME280;60618;40.084;32.908;2023-06-14T01:25:56;89055.75;;;16.17;83.85
72585;BME280;60618;40.084;32.908;2023-06-14T01:28:24;89060.28;;;15.96;84.82
72585;BME280;60618;40.084;32.908;2023-06-14T01:30:53;89057.38;;;15.94;84.96
72585;BME280;60618;40.084;32.908;2023-06-14T01:33:22;89056.56;;;15.86;85.38
72585;BME280;60618;40.084;32.908;2023-06-14T01:35:51;89051.34;;;15.61;86.58
72585;BME280;60618;40.084;32.908;2023-06-14T01:38:20;89048.47;;;15.41;88.00
72585;BME280;60618;40.084;32.908;2023-06-14T01:40:48;89056.91;;;15.31;88.79
72585;BME280;60618;40.084;32.908;2023-06-14T01:43:16;89052.69;;;15.36;88.77
72585;BME280;60618;40.084;32.908;2023-06-14T01:45:47;89055.00;;;15.45;87.81
72585;BME280;60618;40.084;32.908;2023-06-14T01:48:14;89055.03;;;15.58;87.56
72585;BME280;60618;40.084;32.908;2023-06-14T01:50:41;89060.88;;;15.76;86.76
72585;BME280;60618;40.084;32.908;2023-06-14T01:53:09;89059.94;;;15.73;86.76
72585;BME280;60618;40.084;32.908;2023-06-14T01:55:36;89058.84;;;15.82;86.23
72585;BME280;60618;40.084;32.908;2023-06-14T01:58:06;89063.78;;;15.78;85.83
72585;BME280;60618;40.084;32.908;2023-06-14T02:00:33;89068.00;;;15.54;86.45
72585;BME280;60618;40.084;32.908;2023-06-14T02:03:00;89059.34;;;15.48;87.06
72585;BME280;60618;40.084;32.908;2023-06-14T02:05:27;89074.13;;;15.55;87.06
72585;BME280;60618;40.084;32.908;2023-06-14T02:07:54;89070.25;;;15.69;86.11
72585;BME280;60618;40.084;32.908;2023-06-14T02:10:21;89077.00;;;15.76;86.13
72585;BME280;60618;40.084;32.908;2023-06-14T02:12:48;89079.28;;;15.85;85.92
72585;BME280;60618;40.084;32.908;2023-06-14T02:15:15;89074.75;;;15.93;85.31
72585;BME280;60618;40.084;32.908;2023-06-14T02:17:48;89085.28;;;16.04;84.80
72585;BME280;60618;40.084;32.908;2023-06-14T02:20:15;89081.56;;;16.07;84.47
72585;BME280;60618;40.084;32.908;2023-06-14T02:22:44;89082.28;;;16.08;84.36
72585;BME280;60618;40.084;32.908;2023-06-14T02:25:11;89090.94;;;15.87;85.09
72585;BME280;60618;40.084;32.908;2023-06-14T02:27:38;89086.50;;;15.77;85.76
72585;BME280;60618;40.084;32.908;2023-06-14T02:30:06;89089.78;;;15.70;86.14
72585;BME280;60618;40.084;32.908;2023-06-14T02:32:33;89094.44;;;15.50;87.19
72585;BME280;60618;40.084;32.908;2023-06-14T02:35:00;89100.75;;;15.21;88.84
72585;BME280;60618;40.084;32.908;2023-06-14T02:37:27;89100.44;;;15.24;89.55
72585;BME280;60618;40.084;32.908;2023-06-14T02:39:53;89104.06;;;15.27;90.04
72585;BME280;60618;40.084;32.908;2023-06-14T02:42:20;89101.50;;;15.34;89.51
72585;BME280;60618;40.084;32.908;2023-06-14T02:44:47;89104.06;;;15.27;89.96
72585;BME280;60618;40.084;32.908;2023-06-14T02:47:14;89103.47;;;15.34;89.78
72585;BME280;60618;40.084;32.908;2023-06-14T02:49:41;89113.19;;;15.18;90.46
72585;BME280;60618;40.084;32.908;2023-06-14T02:52:08;89111.97;;;15.00;92.34
72585;BME280;60618;40.084;32.908;2023-06-14T02:54:35;89111.47;;;15.21;91.47
72585;BME280;60618;40.084;32.908;2023-06-14T02:57:02;89112.38;;;15.42;90.68
72585;BME280;60618;40.084;32.908;2023-06-14T02:59:29;89113.31;;;15.45;89.69
72585;BME280;60618;40.084;32.908;2023-06-14T03:01:56;89111.47;;;15.53;88.87
72585;BME280;60618;40.084;32.908;2023-06-14T03:04:23;89109.81;;;15.69;88.76
72585;BME280;60618;40.084;32.908;2023-06-14T03:06:49;89105.69;;;15.81;87.71
72585;BME280;60618;40.084;32.908;2023-06-14T03:09:17;89109.53;;;15.85;87.18
72585;BME280;60618;40.084;32.908;2023-06-14T03:11:43;89103.38;;;15.91;86.70
72585;BME280;60618;40.084;32.908;2023-06-14T03:14:10;89106.72;;;15.65;87.32
72585;BME280;60618;40.084;32.908;2023-06-14T03:16:38;89105.97;;;15.45;87.94
72585;BME280;60618;40.084;32.908;2023-06-14T03:19:05;89105.72;;;15.30;90.29
72585;BME280;60618;40.084;32.908;2023-06-14T03:21:31;89109.41;;;15.27;91.07
72585;BME280;60618;40.084;32.908;2023-06-14T03:23:58;89112.53;;;15.31;90.58
72585;BME280;60618;40.084;32.908;2023-06-14T03:26:25;89108.41;;;15.30;91.96
72585;BME280;60618;40.084;32.908;2023-06-14T03:28:52;89106.63;;;15.51;91.51
72585;BME280;60618;40.084;32.908;2023-06-14T03:31:20;89101.25;;;15.51;91.30
72585;BME280;60618;40.084;32.908;2023-06-14T03:33:47;89110.75;;;15.52;91.10
72585;BME280;60618;40.084;32.908;2023-06-14T03:36:14;89113.44;;;15.52;91.36
72585;BME280;60618;40.084;32.908;2023-06-14T03:38:40;89113.56;;;15.60;92.20
72585;BME280;60618;40.084;32.908;2023-06-14T03:41:07;89112.28;;;15.67;92.93
72585;BME280;60618;40.084;32.908;2023-06-14T03:43:34;89113.13;;;15.75;92.33
72585;BME280;60618;40.084;32.908;2023-06-14T03:46:01;89117.78;;;15.74;92.30
72585;BME280;60618;40.084;32.908;2023-06-14T03:48:28;89107.88;;;15.82;92.49
72585;BME280;60618;40.084;32.908;2023-06-14T03:50:55;89114.63;;;16.02;91.95
72585;BME280;60618;40.084;32.908;2023-06-14T03:53:26;89108.25;;;16.18;91.39
72585;BME280;60618;40.084;32.908;2023-06-14T03:55:53;89110.75;;;16.30;89.92
72585;BME280;60618;40.084;32.908;2023-06-14T03:58:35;89106.19;;;16.51;88.80
72585;BME280;60618;40.084;32.908;2023-06-14T04:01:02;89114.25;;;16.64;88.79
72585;BME280;60618;40.084;32.908;2023-06-14T04:03:29;89109.91;;;16.88;88.40
72585;BME280;60618;40.084;32.908;2023-06-14T04:06:05;89107.00;;;16.99;85.98
72585;BME280;60618;40.084;32.908;2023-06-14T04:08:33;89115.84;;;17.07;84.83
72585;BME280;60618;40.084;32.908;2023-06-14T04:11:00;89117.91;;;17.14;85.14
72585;BME280;60618;40.084;32.908;2023-06-14T04:13:27;89120.41;;;17.12;83.13
72585;BME280;60618;40.084;32.908;2023-06-14T04:15:54;89114.63;;;17.08;81.38
72585;BME280;60618;40.084;32.908;2023-06-14T04:18:21;89121.56;;;17.03;82.04
72585;BME280;60618;40.084;32.908;2023-06-14T04:20:50;89117.63;;;17.18;81.87
72585;BME280;60618;40.084;32.908;2023-06-14T04:23:17;89125.13;;;17.33;80.17
72585;BME280;60618;40.084;32.908;2023-06-14T04:25:44;89120.94;;;17.45;79.19
72585;BME280;60618;40.084;32.908;2023-06-14T04:28:14;89125.66;;;17.52;78.80
72585;BME280;60618;40.084;32.908;2023-06-14T04:30:42;89115.59;;;17.31;79.96
72585;BME280;60618;40.084;32.908;2023-06-14T04:33:09;89125.47;;;17.16;80.78
72585;BME280;60618;40.084;32.908;2023-06-14T04:35:36;89132.38;;;17.24;81.40
72585;BME280;60618;40.084;32.908;2023-06-14T04:38:03;89132.63;;;17.13;80.64
72585;BME280;60618;40.084;32.908;2023-06-14T04:40:31;89149.22;;;16.91;82.14
72585;BME280;60618;40.084;32.908;2023-06-14T04:42:59;89148.50;;;16.64;82.88
72585;BME280;60618;40.084;32.908;2023-06-14T04:45:25;89149.59;;;16.42;85.61
72585;BME280;60618;40.084;32.908;2023-06-14T04:47:52;89139.47;;;16.35;85.73
72585;BME280;60618;40.084;32.908;2023-06-14T04:50:19;89143.09;;;16.51;86.40
72585;BME280;60618;40.084;32.908;2023-06-14T04:52:46;89143.63;;;16.49;85.26
72585;BME280;60618;40.084;32.908;2023-06-14T04:55:13;89144.13;;;16.61;84.77
72585;BME280;60618;40.084;32.908;2023-06-14T04:57:40;89149.63;;;16.55;84.67
72585;BME280;60618;40.084;32.908;2023-06-14T05:00:10;89148.59;;;16.45;84.71
72585;BME280;60618;40.084;32.908;2023-06-14T05:02:37;89151.06;;;16.43;86.49
72585;BME280;60618;40.084;32.908;2023-06-14T05:05:04;89150.88;;;16.54;86.63
72585;BME280;60618;40.084;32.908;2023-06-14T05:07:32;89155.81;;;16.50;86.23
72585;BME280;60618;40.084;32.908;2023-06-14T05:09:59;89152.09;;;16.53;87.38
72585;BME280;60618;40.084;32.908;2023-06-14T05:12:26;89159.75;;;16.62;85.83
72585;BME280;60618;40.084;32.908;2023-06-14T05:14:53;89162.66;;;16.64;86.39
72585;BME280;60618;40.084;32.908;2023-06-14T05:17:20;89166.06;;;16.65;85.63
72585;BME280;60618;40.084;32.908;2023-06-14T05:19:50;89167.94;;;16.70;84.94
72585;BME280;60618;40.084;32.908;2023-06-14T05:22:17;89171.13;;;16.55;84.74
72585;BME280;60618;40.084;32.908;2023-06-14T05:24:44;89170.94;;;16.66;85.50
72585;BME280;60618;40.084;32.908;2023-06-14T05:27:11;89174.69;;;16.90;84.18
72585;BME280;60618;40.084;32.908;2023-06-14T05:29:38;89180.25;;;16.79;84.16
72585;BME280;60618;40.084;32.908;2023-06-14T05:32:08;89183.13;;;17.07;83.93
72585;BME280;60618;40.084;32.908;2023-06-14T05:34:42;89183.22;;;17.15;81.65
72585;BME280;60618;40.084;32.908;2023-06-14T05:37:09;89183.53;;;17.24;81.18
72585;BME280;60618;40.084;32.908;2023-06-14T05:39:36;89181.44;;;17.44;81.50
72585;BME280;60618;40.084;32.908;2023-06-14T05:42:03;89190.19;;;17.57;81.77
72585;BME280;60618;40.084;32.908;2023-06-14T05:44:30;89186.53;;;17.81;82.02
72585;BME280;60618;40.084;32.908;2023-06-14T05:46:57;89188.69;;;18.04;81.25
72585;BME280;60618;40.084;32.908;2023-06-14T05:49:24;89178.00;;;18.11;79.63
72585;BME280;60618;40.084;32.908;2023-06-14T05:51:51;89188.03;;;18.32;78.72
72585;BME280;60618;40.084;32.908;2023-06-14T05:54:18;89183.31;;;18.46;78.36
72585;BME280;60618;40.084;32.908;2023-06-14T05:56:45;89183.50;;;18.48;76.76
72585;BME280;60618;40.084;32.908;2023-06-14T05:59:12;89189.22;;;18.44;78.50
72585;BME280;60618;40.084;32.908;2023-06-14T06:01:39;89187.66;;;18.69;78.08
72585;BME280;60618;40.084;32.908;2023-06-14T06:04:06;89182.88;;;18.83;77.32
72585;BME280;60618;40.084;32.908;2023-06-14T06:06:33;89183.16;;;19.00;75.91
72585;BME280;60618;40.084;32.908;2023-06-14T06:09:00;89187.19;;;19.15;74.65
72585;BME280;60618;40.084;32.908;2023-06-14T06:11:27;89185.03;;;19.21;72.99
72585;BME280;60618;40.084;32.908;2023-06-14T06:14:06;89182.03;;;19.24;74.19
72585;BME280;60618;40.084;32.908;2023-06-14T06:16:33;89176.41;;;19.15;74.20
72585;BME280;60618;40.084;32.908;2023-06-14T06:19:00;89180.03;;;19.25;74.24
72585;BME280;60618;40.084;32.908;2023-06-14T06:21:27;89183.75;;;19.50;72.36
72585;BME280;60618;40.084;32.908;2023-06-14T06:23:54;89185.25;;;19.59;71.63
72585;BME280;60618;40.084;32.908;2023-06-14T06:26:22;89178.13;;;19.92;71.74
72585;BME280;60618;40.084;32.908;2023-06-14T06:28:49;89174.13;;;19.78;72.91
72585;BME280;60618;40.084;32.908;2023-06-14T06:31:16;89177.63;;;20.09;72.61
72585;BME280;60618;40.084;32.908;2023-06-14T06:33:42;89179.97;;;20.20;70.17
72585;BME280;60618;40.084;32.908;2023-06-14T06:36:09;89178.19;;;20.38;67.50
72585;BME280;60618;40.084;32.908;2023-06-14T06:38:38;89187.09;;;19.72;71.20
72585;BME280;60618;40.084;32.908;2023-06-14T06:41:05;89183.72;;;19.43;73.50
72585;BME280;60618;40.084;32.908;2023-06-14T06:43:32;89183.03;;;19.14;75.25
72585;BME280;60618;40.084;32.908;2023-06-14T06:45:59;89182.34;;;19.21;74.11
72585;BME280;60618;40.084;32.908;2023-06-14T06:48:26;89193.22;;;19.36;73.74
72585;BME280;60618;40.084;32.908;2023-06-14T06:50:53;89181.13;;;19.29;73.62
72585;BME280;60618;40.084;32.908;2023-06-14T06:53:20;89188.38;;;19.35;73.86
72585;BME280;60618;40.084;32.908;2023-06-14T06:56:05;89181.66;;;19.64;73.26
72585;BME280;60618;40.084;32.908;2023-06-14T06:58:32;89172.88;;;19.79;71.66
72585;BME280;60618;40.084;32.908;2023-06-14T07:01:00;89172.97;;;20.32;71.43
72585;BME280;60618;40.084;32.908;2023-06-14T07:03:27;89174.38;;;21.02;67.01
72585;BME280;60618;40.084;32.908;2023-06-14T07:05:54;89164.22;;;21.25;65.84
72585;BME280;60618;40.084;32.908;2023-06-14T07:08:21;89166.22;;;21.33;64.93
72585;BME280;60618;40.084;32.908;2023-06-14T07:10:48;89168.31;;;21.49;65.39
72585;BME280;60618;40.084;32.908;2023-06-14T07:13:15;89170.59;;;21.68;65.80
72585;BME280;60618;40.084;32.908;2023-06-14T07:15:42;89181.88;;;21.49;62.85
72585;BME280;60618;40.084;32.908;2023-06-14T07:18:08;89178.31;;;21.32;62.21
72585;BME280;60618;40.084;32.908;2023-06-14T07:20:35;89178.63;;;21.43;62.19
72585;BME280;60618;40.084;32.908;2023-06-14T07:23:02;89184.47;;;21.17;62.33
72585;BME280;60618;40.084;32.908;2023-06-14T07:25:29;89172.81;;;20.61;65.43
72585;BME280;60618;40.084;32.908;2023-06-14T07:27:56;89170.03;;;20.07;66.81
72585;BME280;60618;40.084;32.908;2023-06-14T07:30:23;89177.38;;;19.84;67.09
72585;BME280;60618;40.084;32.908;2023-06-14T07:32:50;89179.03;;;20.02;67.75
72585;BME280;60618;40.084;32.908;2023-06-14T07:35:17;89187.13;;;19.95;67.53
72585;BME280;60618;40.084;32.908;2023-06-14T07:37:44;89193.72;;;19.27;69.89
72585;BME280;60618;40.084;32.908;2023-06-14T07:40:11;89184.31;;;18.84;70.86
72585;BME280;60618;40.084;32.908;2023-06-14T07:42:39;89184.06;;;18.75;71.73
72585;BME280;60618;40.084;32.908;2023-06-14T07:45:06;89192.09;;;18.67;73.67
72585;BME280;60618;40.084;32.908;2023-06-14T07:47:33;89198.03;;;18.65;73.92
72585;BME280;60618;40.084;32.908;2023-06-14T07:50:01;89195.44;;;18.60;75.96
72585;BME280;60618;40.084;32.908;2023-06-14T07:52:28;89197.53;;;18.25;76.10
72585;BME280;60618;40.084;32.908;2023-06-14T07:54:55;89198.94;;;17.84;79.33
72585;BME280;60618;40.084;32.908;2023-06-14T07:57:22;89197.34;;;17.55;77.48
72585;BME280;60618;40.084;32.908;2023-06-14T07:59:49;89204.81;;;17.49;79.49
72585;BME280;60618;40.084;32.908;2023-06-14T08:02:16;89203.38;;;17.48;80.58
72585;BME280;60618;40.084;32.908;2023-06-14T08:04:43;89206.00;;;17.61;82.89
72585;BME280;60618;40.084;32.908;2023-06-14T08:07:10;89213.38;;;17.74;84.83
72585;BME280;60618;40.084;32.908;2023-06-14T08:09:36;89212.00;;;17.80;84.36
72585;BME280;60618;40.084;32.908;2023-06-14T08:12:07;89213.69;;;17.70;83.27
72585;BME280;60618;40.084;32.908;2023-06-14T08:14:34;89210.75;;;17.68;83.64
72585;BME280;60618;40.084;32.908;2023-06-14T08:17:01;89218.66;;;17.66;83.53
72585;BME280;60618;40.084;32.908;2023-06-14T08:19:28;89221.97;;;17.59;83.11
72585;BME280;60618;40.084;32.908;2023-06-14T08:21:55;89221.44;;;17.60;81.92
72585;BME280;60618;40.084;32.908;2023-06-14T08:24:22;89218.75;;;17.60;80.89
72585;BME280;60618;40.084;32.908;2023-06-14T08:26:49;89209.56;;;17.56;81.16
72585;BME280;60618;40.084;32.908;2023-06-14T08:29:16;89205.06;;;17.24;77.52
72585;BME280;60618;40.084;32.908;2023-06-14T08:31:43;89207.38;;;16.94;74.95
72585;BME280;60618;40.084;32.908;2023-06-14T08:34:10;89208.91;;;16.89;77.69
72585;BME280;60618;40.084;32.908;2023-06-14T08:36:37;89215.63;;;16.96;78.74
72585;BME280;60618;40.084;32.908;2023-06-14T08:39:06;89230.75;;;16.99;79.05
72585;BME280;60618;40.084;32.908;2023-06-14T08:41:34;89233.22;;;17.10;78.95
72585;BME280;60618;40.084;32.908;2023-06-14T08:44:01;89240.06;;;17.11;78.92
72585;BME280;60618;40.084;32.908;2023-06-14T08:46:30;89236.78;;;16.46;80.91
72585;BME280;60618;40.084;32.908;2023-06-14T08:48:59;89241.50;;;16.08;83.88
72585;BME280;60618;40.084;32.908;2023-06-14T08:51:30;89239.19;;;15.67;87.05
72585;BME280;60618;40.084;32.908;2023-06-14T08:53:57;89245.63;;;15.58;88.21
72585;BME280;60618;40.084;32.908;2023-06-14T08:56:26;89252.28;;;15.33;89.46
72585;BME280;60618;40.084;32.908;2023-06-14T08:58:53;89248.81;;;15.19;90.17
72585;BME280;60618;40.084;32.908;2023-06-14T09:01:20;89255.19;;;15.35;91.45
72585;BME280;60618;40.084;32.908;2023-06-14T09:03:49;89254.78;;;15.69;90.24
72585;BME280;60618;40.084;32.908;2023-06-14T09:06:16;89259.38;;;16.06;88.15
72585;BME280;60618;40.084;32.908;2023-06-14T09:08:44;89256.72;;;16.38;86.58
72585;BME280;60618;40.084;32.908;2023-06-14T09:11:16;89259.81;;;16.42;86.62
72585;BME280;60618;40.084;32.908;2023-06-14T09:13:45;89260.63;;;16.37;86.36
72585;BME280;60618;40.084;32.908;2023-06-14T09:16:12;89263.88;;;16.16;85.08
72585;BME280;60618;40.084;32.908;2023-06-14T09:18:41;89250.31;;;16.09;87.10
72585;BME280;60618;40.084;32.908;2023-06-14T09:21:09;89248.78;;;16.13;86.14
72585;BME280;60618;40.084;32.908;2023-06-14T09:23:47;89245.31;;;16.32;85.52
72585;BME280;60618;40.084;32.908;2023-06-14T09:26:17;89236.53;;;16.31;86.81
72585;BME280;60618;40.084;32.908;2023-06-14T09:28:45;89226.97;;;16.17;85.37
72585;BME280;60618;40.084;32.908;2023-06-14T09:31:20;89224.91;;;16.10;87.85
72585;BME280;60618;40.084;32.908;2023-06-14T09:33:51;89218.41;;;16.18;88.19
72585;BME280;60618;40.084;32.908;2023-06-14T09:36:25;89212.81;;;16.16;87.96
72585;BME280;60618;40.084;32.908;2023-06-14T09:38:56;89212.13;;;16.29;88.09
72585;BME280;60618;40.084;32.908;2023-06-14T09:41:31;89213.16;;;16.26;88.25
72585;BME280;60618;40.084;32.908;2023-06-14T09:43:59;89207.63;;;16.51;87.72
72585;BME280;60618;40.084;32.908;2023-06-14T09:46:26;89203.03;;;16.91;86.96
72585;BME280;60618;40.084;32.908;2023-06-14T09:48:53;89213.66;;;17.23;86.37
72585;BME280;60618;40.084;32.908;2023-06-14T09:51:22;89210.09;;;17.54;85.82
72585;BME280;60618;40.084;32.908;2023-06-14T09:53:50;89209.75;;;17.71;85.47
72585;BME280;60618;40.084;32.908;2023-06-14T09:56:26;89210.63;;;17.53;86.77
72585;BME280;60618;40.084;32.908;2023-06-14T09:58:56;89214.13;;;17.48;88.62
72585;BME280;60618;40.084;32.908;2023-06-14T10:01:34;89213.34;;;17.13;89.26
72585;BME280;60618;40.084;32.908;2023-06-14T10:04:05;89214.09;;;16.87;90.40
72585;BME280;60618;40.084;32.908;2023-06-14T10:06:39;89215.84;;;16.85;91.98
72585;BME280;60618;40.084;32.908;2023-06-14T10:09:10;89215.00;;;16.77;91.68
72585;BME280;60618;40.084;32.908;2023-06-14T10:11:37;89202.81;;;16.76;91.84
72585;BME280;60618;40.084;32.908;2023-06-14T10:14:05;89196.50;;;16.86;91.23
72585;BME280;60618;40.084;32.908;2023-06-14T10:19:24;89207.16;;;16.92;94.58
72585;BME280;60618;40.084;32.908;2023-06-14T10:22:12;89198.34;;;16.78;94.79
72585;BME280;60618;40.084;32.908;2023-06-14T10:24:45;89202.06;;;16.88;94.22
72585;BME280;60618;40.084;32.908;2023-06-14T10:27:16;89215.41;;;17.07;92.83
72585;BME280;60618;40.084;32.908;2023-06-14T10:32:22;89214.38;;;17.37;92.36
72585;BME280;60618;40.084;32.908;2023-06-14T10:34:58;89219.44;;;17.40;92.33
72585;BME280;60618;40.084;32.908;2023-06-14T10:37:25;89210.53;;;17.45;92.63
72585;BME280;60618;40.084;32.908;2023-06-14T10:39:52;89207.69;;;17.51;93.93
72585;BME280;60618;40.084;32.908;2023-06-14T10:42:20;89212.88;;;17.62;94.77
72585;BME280;60618;40.084;32.908;2023-06-14T10:44:50;89222.09;;;17.53;92.12
72585;BME280;60618;40.084;32.908;2023-06-14T10:47:30;89218.25;;;17.62;92.41
72585;BME280;60618;40.084;32.908;2023-06-14T10:50:06;89217.22;;;17.65;93.07
72585;BME280;60618;40.084;32.908;2023-06-14T10:52:38;89219.47;;;17.74;91.00
72585;BME280;60618;40.084;32.908;2023-06-14T10:55:12;89226.78;;;17.53;91.82
72585;BME280;60618;40.084;32.908;2023-06-14T10:57:45;89223.75;;;17.43;87.17
72585;BME280;60618;40.084;32.908;2023-06-14T11:00:16;89219.91;;;17.52;87.37
72585;BME280;60618;40.084;32.908;2023-06-14T11:05:24;89229.22;;;17.64;82.21
72585;BME280;60618;40.084;32.908;2023-06-14T11:10:37;89237.91;;;17.70;80.56
72585;BME280;60618;40.084;32.908;2023-06-14T11:13:05;89239.25;;;17.77;82.71
72585;BME280;60618;40.084;32.908;2023-06-14T11:15:33;89244.41;;;17.88;83.30
72585;BME280;60618;40.084;32.908;2023-06-14T11:18:07;89250.59;;;17.96;82.88
72585;BME280;60618;40.084;32.908;2023-06-14T11:20:35;89251.66;;;17.93;84.71
72585;BME280;60618;40.084;32.908;2023-06-14T11:23:04;89251.66;;;17.93;83.77
72585;BME280;60618;40.084;32.908;2023-06-14T11:25:31;89247.41;;;17.98;84.31
72585;BME280;60618;40.084;32.908;2023-06-14T11:27:58;89250.03;;;18.11;85.71
72585;BME280;60618;40.084;32.908;2023-06-14T11:30:25;89248.25;;;18.13;82.94
72585;BME280;60618;40.084;32.908;2023-06-14T11:32:53;89255.38;;;18.24;85.37
72585;BME280;60618;40.084;32.908;2023-06-14T11:35:25;89245.59;;;18.34;84.80
72585;BME280;60618;40.084;32.908;2023-06-14T11:37:54;89243.72;;;18.50;83.96
72585;BME280;60618;40.084;32.908;2023-06-14T11:40:24;89248.88;;;18.40;81.27
72585;BME280;60618;40.084;32.908;2023-06-14T11:42:58;89257.03;;;18.27;80.27
72585;BME280;60618;40.084;32.908;2023-06-14T11:45:26;89255.69;;;18.41;80.22
72585;BME280;60618;40.084;32.908;2023-06-14T11:47:55;89248.22;;;18.48;77.93
72585;BME280;60618;40.084;32.908;2023-06-14T11:50:22;89256.72;;;18.73;78.96
72585;BME280;60618;40.084;32.908;2023-06-14T11:52:57;89247.19;;;19.00;75.24
72585;BME280;60618;40.084;32.908;2023-06-14T11:55:25;89232.19;;;19.20;75.19
72585;BME280;60618;40.084;32.908;2023-06-14T12:21:59;89220.91;;;17.89;77.28
72585;BME280;60618;40.084;32.908;2023-06-14T12:24:29;89218.84;;;17.81;76.00
72585;BME280;60618;40.084;32.908;2023-06-14T12:26:57;89221.69;;;17.97;77.01
72585;BME280;60618;40.084;32.908;2023-06-14T12:29:25;89220.84;;;18.02;76.40
72585;BME280;60618;40.084;32.908;2023-06-14T12:31:52;89221.91;;;17.99;76.83
72585;BME280;60618;40.084;32.908;2023-06-14T12:34:19;89212.38;;;17.98;76.88
72585;BME280;60618;40.084;32.908;2023-06-14T12:36:46;89211.13;;;17.99;77.62
72585;BME280;60618;40.084;32.908;2023-06-14T12:39:13;89205.47;;;17.89;79.01
72585;BME280;60618;40.084;32.908;2023-06-14T12:41:40;89200.78;;;17.90;80.39
72585;BME280;60618;40.084;32.908;2023-06-14T12:44:07;89198.31;;;17.78;79.47
72585;BME280;60618;40.084;32.908;2023-06-14T12:46:34;89198.75;;;17.69;79.45
72585;BME280;60618;40.084;32.908;2023-06-14T12:49:01;89203.94;;;17.67;79.84
72585;BME280;60618;40.084;32.908;2023-06-14T12:51:28;89204.66;;;17.68;80.56
72585;BME280;60618;40.084;32.908;2023-06-14T12:53:55;89210.56;;;17.66;80.58
72585;BME280;60618;40.084;32.908;2023-06-14T12:56:22;89210.75;;;17.68;80.06
72585;BME280;60618;40.084;32.908;2023-06-14T12:58:50;89208.25;;;17.83;81.32
72585;BME280;60618;40.084;32.908;2023-06-14T13:01:18;89212.94;;;17.83;80.30
72585;BME280;60618;40.084;32.908;2023-06-14T13:03:48;89211.75;;;17.92;79.68
72585;BME280;60618;40.084;32.908;2023-06-14T13:06:15;89203.88;;;17.94;80.09
72585;BME280;60618;40.084;32.908;2023-06-14T13:08:42;89206.84;;;18.03;80.57
72585;BME280;60618;40.084;32.908;2023-06-14T13:11:09;89204.09;;;18.17;80.44
72585;BME280;60618;40.084;32.908;2023-06-14T13:13:36;89191.06;;;18.28;79.17
72585;BME280;60618;40.084;32.908;2023-06-14T13:16:03;89184.31;;;18.35;77.94
72585;BME280;60618;40.084;32.908;2023-06-14T13:18:30;89183.69;;;18.50;77.99
72585;BME280;60618;40.084;32.908;2023-06-14T13:20:57;89183.22;;;18.59;75.74
72585;BME280;60618;40.084;32.908;2023-06-14T13:23:24;89184.88;;;18.62;74.98
72585;BME280;60618;40.084;32.908;2023-06-14T13:25:51;89191.25;;;18.72;74.57
72585;BME280;60618;40.084;32.908;2023-06-14T13:28:18;89188.41;;;18.78;74.82
72585;BME280;60618;40.084;32.908;2023-06-14T13:30:44;89189.88;;;18.86;73.83